KCAE

Columbia Metropolitan Airport

Columbia, South Carolina, USA
METAR KCAE 260356Z 11005KT 10SM FEW050 SCT180 23/22 A3000 RMK AO2 SLP155 T02280222
Observed Flight Rules
May-26 @ 03:56 UTC (26 minutes ago) Visual Flight Rules
Wind Visibility Clouds
110° at 5 knots 10 miles
  • Few at 5,000' AGL
  • Scattered at 18,000' AGL
Temperatures Readings
Current 23°C / 73°F
Dewpoint 22°C / 72°F
Humidity 94%
Altimeter 30" Hg
Pressure 1015.5 hPa
Elevation 70
METAR KCAE 260356Z 11005KT 10SM FEW050 SCT180 23/22 A3000 RMK AO2 SLP155 T02280222
Observed Flight Rules
May-26 @ 03:56 UTC
(26 minutes ago)
VFR
Wind Visibility
110° at 5 knots 10 miles
Clouds
  • Few at 5,000' AGL
  • Scattered at 18,000' AGL
Temperature Dewpoint
23°C / 73°F 22°C / 72°F
Humidity Altimeter Pressure
94% 30" Hg 1015.5 hPa